Time;durP1;ratioP1;P1;durP2;ratioP2;P2;SDS_P1;SDS_P2;PMS_P1;PMS_P2;Temp;Humidity;BMP_temperature;BMP_pressure;BME280_temperature;BME280_humidity;BME280_pressure;Samples;Min_cycle;Max_cycle;Signal;HPM_P1;HPM_P2
2020/12/26 00:01:54;;;;;;;4.57;3.60;;;;;;;9.36;64.05;102508.28;5057506;28;20047;-92
2020/12/26 00:04:20;;;;;;;3.25;2.95;;;;;;;9.35;64.22;102493.00;5085568;28;20051;-91
2020/12/26 00:06:50;;;;;;;3.42;3.10;;;;;;;9.40;64.08;102500.69;5038594;28;20298;-92
2020/12/26 00:09:15;;;;;;;8.23;5.03;;;;;;;9.39;63.83;102499.84;5057383;28;20040;-92
2020/12/26 00:11:40;;;;;;;7.57;4.05;;;;;;;9.37;64.09;102490.97;5040397;28;20050;-91
2020/12/26 00:14:06;;;;;;;4.78;4.40;;;;;;;9.39;64.00;102496.25;5059179;28;20032;-91
2020/12/26 00:16:31;;;;;;;5.28;3.45;;;;;;;9.40;63.86;102487.13;5046894;28;20040;-91
2020/12/26 00:18:57;;;;;;;7.95;7.15;;;;;;;9.37;64.16;102482.81;5057929;28;20036;-90
2020/12/26 00:21:22;;;;;;;5.70;3.88;;;;;;;9.30;64.11;102462.72;5058195;28;20411;-90
2020/12/26 00:23:48;;;;;;;10.00;3.75;;;;;;;9.32;64.34;102472.41;5041783;28;20036;-92
2020/12/26 00:26:15;;;;;;;8.13;5.90;;;;;;;9.20;64.71;102475.47;5056926;28;20239;-86
2020/12/26 00:28:41;;;;;;;6.47;3.65;;;;;;;9.11;64.95;102469.91;5057301;28;20028;-88
2020/12/26 00:31:11;;;;;;;6.38;3.45;;;;;;;9.15;64.77;102470.47;5089941;28;20028;-87
2020/12/26 00:33:36;;;;;;;13.70;7.15;;;;;;;9.15;64.36;102459.63;5057569;28;20879;-90
2020/12/26 00:36:01;;;;;;;9.05;3.42;;;;;;;9.24;63.75;102463.31;5073130;28;20039;-90
2020/12/26 00:38:27;;;;;;;7.28;2.63;;;;;;;9.32;63.67;102472.41;5057272;28;20036;-91
2020/12/26 00:40:52;;;;;;;7.75;3.38;;;;;;;9.29;63.36;102448.28;5075189;28;20039;-90
2020/12/26 00:43:18;;;;;;;9.90;5.05;;;;;;;9.34;63.31;102450.53;5089488;28;20110;-91
2020/12/26 00:45:44;;;;;;;9.45;4.25;;;;;;;9.29;63.10;102445.56;5055649;28;20375;-91
2020/12/26 00:48:15;;;;;;;10.77;5.18;;;;;;;9.35;62.96;102467.72;5093276;28;20051;-92
2020/12/26 00:50:40;;;;;;;9.80;4.68;;;;;;;9.29;62.99;102456.41;5075956;28;20070;-90
2020/12/26 00:53:05;;;;;;;10.63;4.25;;;;;;;9.23;62.74;102448.88;5059818;28;20036;-93
2020/12/26 00:55:31;;;;;;;10.85;4.13;;;;;;;9.07;63.29;102446.78;5064566;28;20024;-90
2020/12/26 00:57:57;;;;;;;15.68;4.80;;;;;;;9.15;62.96;102451.47;5073176;28;20044;-90
2020/12/26 01:00:22;;;;;;;11.73;4.13;;;;;;;9.12;63.02;102458.03;5077423;28;20032;-88
2020/12/26 01:02:47;;;;;;;10.30;6.93;;;;;;;9.18;62.99;102464.75;5060924;28;20031;-93
2020/12/26 01:05:13;;;;;;;10.77;5.20;;;;;;;9.18;62.77;102472.88;5060697;28;20544;-92
2020/12/26 01:07:38;;;;;;;7.78;5.50;;;;;;;9.11;62.57;102463.63;5056461;28;20036;-87
2020/12/26 01:10:05;;;;;;;11.65;5.28;;;;;;;9.23;62.13;102465.16;5046981;28;20078;-89
2020/12/26 01:12:30;;;;;;;7.65;5.70;;;;;;;9.10;61.94;102442.91;5060307;28;20415;-90
2020/12/26 01:14:57;;;;;;;5.15;3.08;;;;;;;9.09;61.39;102443.91;5055954;28;20047;-90
2020/12/26 01:17:23;;;;;;;9.15;4.47;;;;;;;8.93;61.58;102433.69;5041308;28;20092;-92
2020/12/26 01:19:48;;;;;;;7.80;4.03;;;;;;;8.95;61.83;102446.06;5060765;28;20035;-90
2020/12/26 01:22:14;;;;;;;8.88;5.00;;;;;;;8.96;62.27;102452.38;5073948;28;20020;-90
2020/12/26 01:24:41;;;;;;;7.68;4.88;;;;;;;9.03;61.64;102452.66;5054913;28;20067;-91
2020/12/26 01:27:07;;;;;;;12.18;3.85;;;;;;;8.91;61.77;102451.94;5088792;28;20036;-90
2020/12/26 01:29:34;;;;;;;9.50;5.22;;;;;;;8.92;61.40;102432.81;5058423;28;20505;-91
2020/12/26 01:31:59;;;;;;;9.93;5.30;;;;;;;9.04;61.11;102440.78;5094114;28;20054;-91
2020/12/26 01:34:25;;;;;;;9.02;5.53;;;;;;;9.12;60.87;102441.75;5041377;28;20386;-90
2020/12/26 01:36:51;;;;;;;12.10;7.30;;;;;;;9.07;60.99;102433.22;5057535;28;20036;-90
2020/12/26 01:39:20;;;;;;;12.00;5.82;;;;;;;9.10;60.82;102440.22;5073292;28;20558;-89
2020/12/26 01:41:55;;;;;;;9.70;6.00;;;;;;;9.08;61.15;102428.63;5060004;28;20043;-88
2020/12/26 01:44:22;;;;;;;6.72;4.20;;;;;;;9.04;61.33;102443.50;5074750;28;20086;-90
2020/12/26 01:46:49;;;;;;;12.57;5.28;;;;;;;9.07;61.04;102443.22;5087631;28;20055;-91
2020/12/26 01:49:15;;;;;;;6.80;3.20;;;;;;;9.05;61.24;102439.78;5073796;28;20381;-91
2020/12/26 01:51:42;;;;;;;10.10;4.93;;;;;;;8.98;61.06;102434.09;5057068;28;20033;-91
2020/12/26 01:54:07;;;;;;;9.07;4.60;;;;;;;9.11;60.76;102455.47;5079530;28;20031;-91
2020/12/26 01:56:33;;;;;;;9.68;7.15;;;;;;;8.91;60.57;102409.41;5057755;28;20051;-91
2020/12/26 01:58:58;;;;;;;10.00;4.22;;;;;;;8.91;60.82;102412.13;5076801;28;20039;-90
2020/12/26 02:01:32;;;;;;;12.88;6.50;;;;;;;9.08;60.37;102432.22;5044874;28;20028;-88
2020/12/26 02:03:58;;;;;;;4.65;4.07;;;;;;;8.99;60.71;102405.09;5074387;28;20036;-90
2020/12/26 02:06:24;;;;;;;10.43;5.70;;;;;;;9.19;60.28;102425.75;5041875;28;20040;-91
2020/12/26 02:08:50;;;;;;;10.00;4.80;;;;;;;9.10;60.42;102415.78;5089304;28;20028;-91
2020/12/26 02:11:15;;;;;;;8.65;4.40;;;;;;;8.96;60.33;102390.81;5075171;28;20039;-90
2020/12/26 02:13:41;;;;;;;10.68;5.38;;;;;;;9.01;60.59;102405.81;5055645;28;20020;-90
2020/12/26 02:16:08;;;;;;;13.00;9.55;;;;;;;9.09;60.38;102404.06;5068798;28;20036;-89
2020/12/26 02:18:34;;;;;;;9.10;7.65;;;;;;;9.13;60.57;102394.63;5075033;28;20111;-89
2020/12/26 02:21:00;;;;;;;9.90;5.78;;;;;;;9.07;61.17;102391.66;5057646;28;20127;-88
2020/12/26 02:23:26;;;;;;;11.07;6.18;;;;;;;9.03;61.01;102365.81;5056339;28;20036;-91
2020/12/26 02:25:58;;;;;;;9.15;4.38;;;;;;;9.12;60.85;102379.31;5083753;28;20023;-88
2020/12/26 02:28:24;;;;;;;9.43;4.25;;;;;;;9.12;61.49;102365.75;5054172;28;20685;-87
2020/12/26 02:30:51;;;;;;;9.10;6.18;;;;;;;9.11;61.14;102358.63;5073094;28;20088;-90
2020/12/26 02:33:16;;;;;;;9.30;4.40;;;;;;;9.19;61.18;102346.16;5059195;28;20031;-91
2020/12/26 02:35:46;;;;;;;7.63;6.28;;;;;;;9.06;61.34;102316.66;5074222;28;20551;-88
2020/12/26 02:38:12;;;;;;;9.65;5.05;;;;;;;9.16;60.99;102322.03;5055920;28;20035;-88
2020/12/26 02:40:38;;;;;;;10.45;5.78;;;;;;;9.00;61.18;102292.84;5035355;28;20036;-88
2020/12/26 02:43:11;;;;;;;8.85;4.65;;;;;;;9.06;61.33;102305.81;5047525;28;20078;-87
2020/12/26 02:45:36;;;;;;;8.27;3.60;;;;;;;9.02;61.20;102288.09;5086468;28;20062;-88
2020/12/26 02:48:01;;;;;;;9.00;4.32;;;;;;;8.96;61.29;102274.16;5055287;28;20031;-89
2020/12/26 02:50:27;;;;;;;11.70;4.80;;;;;;;9.09;61.36;102294.66;5072102;28;20036;-90
2020/12/26 02:52:52;;;;;;;7.63;6.53;;;;;;;9.05;61.19;102294.09;5072216;28;20028;-87
2020/12/26 02:55:18;;;;;;;6.65;5.78;;;;;;;9.02;61.22;102279.97;5054671;28;20458;-89
2020/12/26 02:57:44;;;;;;;10.38;5.03;;;;;;;8.97;61.44;102288.56;5057286;28;20859;-86
2020/12/26 03:00:09;;;;;;;10.07;5.93;;;;;;;9.05;62.02;102304.97;5091103;28;20058;-90
2020/12/26 03:02:35;;;;;;;5.13;4.45;;;;;;;9.05;63.03;102301.38;5088603;28;20027;-92
2020/12/26 03:05:00;;;;;;;9.57;5.15;;;;;;;9.17;62.19;102297.44;5041349;28;20031;-89
2020/12/26 03:07:26;;;;;;;8.50;4.43;;;;;;;9.36;62.17;102299.22;5072949;28;20708;-91
2020/12/26 03:09:51;;;;;;;11.50;5.85;;;;;;;9.06;63.18;102275.94;5042756;28;20029;-84
2020/12/26 03:12:17;;;;;;;8.35;3.92;;;;;;;9.40;62.74;102291.63;5072341;28;20032;-90
2020/12/26 03:14:42;;;;;;;9.35;4.72;;;;;;;9.34;62.30;102259.66;5057256;28;20497;-89
2020/12/26 03:17:07;;;;;;;6.68;2.72;;;;;;;9.56;62.19;102280.06;5073940;28;20020;-92
2020/12/26 03:19:33;;;;;;;5.53;2.72;;;;;;;9.54;62.78;102293.81;5058098;28;20028;-87
2020/12/26 03:21:58;;;;;;;10.75;4.28;;;;;;;9.61;62.30;102297.63;5039218;28;20506;-87
2020/12/26 03:24:24;;;;;;;11.70;5.63;;;;;;;9.45;62.67;102268.44;5093617;28;20433;-88
2020/12/26 03:26:49;;;;;;;8.07;6.22;;;;;;;9.64;62.79;102289.16;5073037;28;20036;-88
2020/12/26 03:29:14;;;;;;;4.85;3.67;;;;;;;9.67;62.56;102277.13;5058024;28;20032;-91
2020/12/26 03:31:40;;;;;;;5.28;3.08;;;;;;;9.71;62.58;102281.25;5055370;28;20024;-91
2020/12/26 03:34:05;;;;;;;7.75;3.50;;;;;;;9.70;61.85;102270.53;5057691;28;20030;-90
2020/12/26 03:36:31;;;;;;;9.38;3.00;;;;;;;9.57;62.38;102260.91;5046428;28;20031;-89
2020/12/26 03:38:56;;;;;;;7.32;2.88;;;;;;;9.67;61.94;102250.81;5069744;28;20036;-90
2020/12/26 03:41:22;;;;;;;9.07;4.47;;;;;;;9.84;61.71;102272.72;5084554;28;20047;-86
2020/12/26 03:43:47;;;;;;;8.05;3.72;;;;;;;9.85;61.76;102275.28;5072240;28;20028;-91
2020/12/26 03:46:12;;;;;;;11.15;6.35;;;;;;;9.78;61.59;102271.47;5072033;28;20046;-92
2020/12/26 03:48:38;;;;;;;8.65;3.47;;;;;;;9.80;61.83;102274.03;5072105;28;20036;-87
2020/12/26 03:51:03;;;;;;;11.48;5.78;;;;;;;9.70;62.10;102256.94;5057007;28;20708;-87
2020/12/26 03:53:29;;;;;;;4.97;3.88;;;;;;;9.82;61.77;102269.28;5068617;28;20056;-91
2020/12/26 03:55:54;;;;;;;7.25;4.90;;;;;;;9.57;62.59;102247.31;5076077;28;20390;-89
2020/12/26 03:58:19;;;;;;;8.00;4.40;;;;;;;9.87;61.97;102250.66;5060226;28;20089;-88
2020/12/26 04:00:45;;;;;;;10.27;6.10;;;;;;;10.01;61.86;102252.81;5044377;28;20081;-90
2020/12/26 04:03:10;;;;;;;9.45;5.18;;;;;;;9.86;62.19;102232.66;5057661;28;20031;-89
2020/12/26 04:05:36;;;;;;;10.07;5.07;;;;;;;9.91;62.21;102233.00;5059411;28;20039;-87
2020/12/26 04:08:01;;;;;;;8.82;4.20;;;;;;;9.80;62.17;102223.25;5092250;28;20020;-88
2020/12/26 04:10:26;;;;;;;9.23;3.78;;;;;;;10.00;62.06;102231.22;5055844;28;20126;-92
2020/12/26 04:12:52;;;;;;;7.25;4.60;;;;;;;10.12;62.12;102237.28;5050110;28;20024;-89
2020/12/26 04:15:17;;;;;;;7.68;3.45;;;;;;;10.19;61.57;102235.59;5056151;28;20483;-90
2020/12/26 04:17:43;;;;;;;9.93;3.25;;;;;;;10.07;61.44;102213.28;5092491;28;20024;-89
2020/12/26 04:20:08;;;;;;;8.27;3.22;;;;;;;10.18;61.41;102226.59;5043502;28;20702;-91
2020/12/26 04:22:33;;;;;;;7.03;2.83;;;;;;;10.20;61.46;102212.84;5090935;28;20020;-90
2020/12/26 04:24:59;;;;;;;5.70;4.00;;;;;;;10.03;61.59;102203.72;5059927;28;20066;-84
2020/12/26 04:27:24;;;;;;;5.22;2.97;;;;;;;10.20;61.10;102208.25;5088449;28;20036;-88
2020/12/26 04:29:52;;;;;;;10.77;2.70;;;;;;;10.04;61.74;102206.28;5056590;28;20661;-86
2020/12/26 04:32:18;;;;;;;5.25;4.22;;;;;;;10.07;61.56;102198.81;5057596;28;20509;-92
2020/12/26 04:34:46;;;;;;;9.77;3.55;;;;;;;9.91;61.49;102207.72;5059195;28;20094;-90
2020/12/26 04:37:12;;;;;;;9.88;3.05;;;;;;;9.98;60.96;102204.22;5072246;28;20060;-87
2020/12/26 04:39:38;;;;;;;7.68;2.33;;;;;;;10.34;60.16;102201.41;5074909;28;20044;-89
2020/12/26 04:42:04;;;;;;;6.30;2.25;;;;;;;10.32;59.92;102217.00;5072336;28;20044;-88
2020/12/26 04:44:30;;;;;;;9.15;3.20;;;;;;;10.26;59.94;102216.81;5072978;28;20044;-89
2020/12/26 04:46:57;;;;;;;3.42;2.28;;;;;;;10.30;59.32;102200.00;5089199;28;20522;-85
2020/12/26 04:49:29;;;;;;;5.78;2.45;;;;;;;10.43;58.74;102190.59;5056833;28;20516;-90
2020/12/26 04:51:57;;;;;;;6.45;2.20;;;;;;;10.13;59.74;102174.59;5073210;28;20123;-87
2020/12/26 04:54:26;;;;;;;4.85;2.42;;;;;;;10.44;59.56;102187.72;5090757;28;20028;-89
2020/12/26 04:56:54;;;;;;;8.52;2.50;;;;;;;10.27;59.50;102186.72;5089988;28;20497;-89
2020/12/26 04:59:20;;;;;;;7.80;3.55;;;;;;;10.34;60.06;102197.84;5074729;28;20032;-86
2020/12/26 05:01:47;;;;;;;8.80;2.30;;;;;;;10.15;60.24;102186.16;5073841;28;20032;-87
2020/12/26 05:04:13;;;;;;;7.07;2.30;;;;;;;10.36;59.93;102207.56;5071055;28;20036;-88
2020/12/26 05:06:45;;;;;;;13.18;3.17;;;;;;;10.36;59.72;102207.56;5057658;28;20032;-89
2020/12/26 05:09:11;;;;;;;8.73;3.38;;;;;;;10.29;60.01;102205.59;5073834;28;20114;-86
2020/12/26 05:11:37;;;;;;;8.68;3.58;;;;;;;10.21;60.10;102174.63;5091124;28;20028;-89
2020/12/26 05:14:15;;;;;;;28.00;3.60;;;;;;;10.22;60.33;102175.47;5055531;28;20463;-86
2020/12/26 05:16:40;;;;;;;8.75;4.03;;;;;;;10.23;60.48;102179.91;5073751;28;20063;-89
2020/12/26 05:19:08;;;;;;;8.25;2.67;;;;;;;10.15;60.16;102160.84;5092055;28;20027;-88
2020/12/26 05:21:33;;;;;;;6.82;3.05;;;;;;;10.34;59.64;102168.78;5072055;28;20027;-87
2020/12/26 05:24:06;;;;;;;7.20;3.60;;;;;;;10.59;59.50;102178.94;5057923;28;20036;-87
2020/12/26 05:26:58;;;;;;;4.78;3.42;;;;;;;10.37;59.51;102149.41;5045024;28;20506;-91
2020/12/26 05:29:24;;;;;;;12.88;4.68;;;;;;;10.42;59.30;102148.91;5054016;28;20127;-89
2020/12/26 05:31:58;;;;;;;12.43;4.97;;;;;;;10.38;59.52;102163.88;5037907;28;20025;-91
2020/12/26 05:34:50;;;;;;;10.73;3.30;;;;;;;10.50;59.49;102169.88;5066937;28;20371;-88
2020/12/26 05:37:17;;;;;;;7.00;3.50;;;;;;;10.47;58.99;102160.19;5051071;28;20174;-88
2020/12/26 05:39:42;;;;;;;7.43;3.75;;;;;;;10.25;59.74;102172.44;5056423;28;20502;-85
2020/12/26 05:42:08;;;;;;;10.90;3.72;;;;;;;10.39;59.30;102166.44;5054465;28;20047;-88
2020/12/26 05:44:35;;;;;;;5.22;2.88;;;;;;;10.27;59.59;102155.94;5057161;28;20082;-90
2020/12/26 05:47:03;;;;;;;8.82;3.45;;;;;;;10.15;59.56;102147.25;5054618;28;20527;-87
2020/12/26 05:49:32;;;;;;;10.98;2.75;;;;;;;10.48;59.03;102171.91;5090937;28;20093;-90
2020/12/26 05:52:03;;;;;;;15.88;3.65;;;;;;;10.59;58.97;102159.88;5085979;28;20540;-89
2020/12/26 05:54:30;;;;;;;4.22;1.80;;;;;;;10.37;59.19;102154.84;5074031;28;20016;-88
2020/12/26 05:57:11;;;;;;;5.60;3.10;;;;;;;10.31;59.10;102141.03;5073335;28;20032;-90
2020/12/26 05:59:37;;;;;;;11.15;4.82;;;;;;;10.47;59.04;102156.59;5086691;28;20038;-86
2020/12/26 06:02:21;;;;;;;8.02;2.38;;;;;;;10.52;59.48;102156.97;5083089;28;20111;-88
2020/12/26 06:05:06;;;;;;;12.75;3.40;;;;;;;10.42;59.64;102157.06;5091365;28;20028;-87
2020/12/26 06:07:37;;;;;;;8.38;3.28;;;;;;;10.38;58.79;102145.69;5053892;28;20044;-87
2020/12/26 06:10:05;;;;;;;6.30;3.08;;;;;;;10.49;58.66;102140.97;5089704;28;20028;-89
2020/12/26 06:12:31;;;;;;;7.65;2.42;;;;;;;10.25;59.28;102133.53;5069264;28;20036;-88
2020/12/26 06:14:57;;;;;;;11.75;4.63;;;;;;;10.37;59.05;102130.38;5073307;28;20031;-90
2020/12/26 06:17:28;;;;;;;7.68;3.28;;;;;;;10.29;58.87;102119.44;5054755;28;20032;-89
2020/12/26 06:19:56;;;;;;;7.53;2.50;;;;;;;10.50;58.29;102131.78;5090090;28;20069;-86
2020/12/26 06:22:21;;;;;;;9.73;3.30;;;;;;;10.52;58.19;102129.78;5071337;28;20028;-88
2020/12/26 06:24:48;;;;;;;8.52;3.08;;;;;;;10.60;58.38;102137.94;5073334;28;20034;-86
2020/12/26 06:27:14;;;;;;;9.48;3.17;;;;;;;10.38;58.87;102132.09;5070174;28;20177;-86
2020/12/26 06:29:44;;;;;;;10.15;3.22;;;;;;;10.57;58.37;102135.56;5086509;28;20076;-86
2020/12/26 06:32:11;;;;;;;11.75;4.32;;;;;;;10.65;58.44;102135.59;5083790;28;20027;-83
2020/12/26 06:34:39;;;;;;;7.47;3.53;;;;;;;10.49;58.16;102124.66;5084200;28;20052;-84
2020/12/26 06:37:05;;;;;;;11.77;3.03;;;;;;;10.49;57.75;102132.81;5071174;28;20562;-87
2020/12/26 06:39:33;;;;;;;7.85;2.17;;;;;;;10.42;57.54;102142.63;5084779;28;20040;-85
2020/12/26 06:42:18;;;;;;;6.30;2.45;;;;;;;10.52;57.55;102136.06;5087078;28;20031;-90
2020/12/26 06:44:46;;;;;;;8.75;2.80;;;;;;;10.52;57.16;102146.09;5065735;28;20041;-88
2020/12/26 06:47:39;;;;;;;8.60;2.38;;;;;;;10.50;58.15;102140.81;5080974;28;20064;-88
2020/12/26 06:50:21;;;;;;;10.60;2.60;;;;;;;10.35;58.05;102120.69;5083405;28;20028;-88
2020/12/26 06:52:46;;;;;;;8.05;3.75;;;;;;;10.67;58.48;102143.56;5054719;28;20028;-85
2020/12/26 06:55:44;;;;;;;7.50;3.05;;;;;;;10.56;58.26;102148.28;5048718;28;20124;-86
2020/12/26 06:58:36;;;;;;;8.45;4.00;;;;;;;10.72;57.81;102136.63;5087294;28;20038;-84
2020/12/26 07:01:21;;;;;;;6.32;3.30;;;;;;;10.71;58.27;102124.03;5040649;28;20123;-86
2020/12/26 07:03:46;;;;;;;5.32;1.92;;;;;;;10.82;57.81;102135.66;5069055;28;20039;-85
2020/12/26 07:06:38;;;;;;;7.30;2.45;;;;;;;10.83;57.86;102121.88;5068132;28;20036;-86
2020/12/26 07:09:04;;;;;;;;;;;;;;;10.64;58.31;102133.03;5070039;28;20028;-85
2020/12/26 07:11:29;;;;;;;10.95;3.72;;;;;;;10.54;57.56;102119.56;5085096;28;19999;-85
2020/12/26 07:13:55;;;;;;;11.27;4.72;;;;;;;10.59;58.08;102125.34;5066677;28;20078;-86
2020/12/26 07:16:45;;;;;;;8.07;3.25;;;;;;;10.56;58.05;102106.66;5073549;28;20483;-90
2020/12/26 07:19:19;;;;;;;5.68;2.75;;;;;;;10.38;58.60;102095.91;5086554;28;20028;-88
2020/12/26 07:21:55;;;;;;;6.10;2.25;;;;;;;10.45;57.62;102093.34;5086072;28;20043;-90
2020/12/26 07:24:31;;;;;;;7.03;2.22;;;;;;;10.66;56.97;102090.16;5058546;28;20081;-86
2020/12/26 07:27:34;;;;;;;4.53;2.33;;;;;;;10.70;57.03;102094.28;5073210;28;20035;-84
2020/12/26 07:30:07;;;;;;;10.63;2.63;;;;;;;10.45;57.58;102080.59;5091564;28;20028;-88
2020/12/26 07:32:38;;;;;;;6.60;2.00;;;;;;;10.39;57.15;102086.69;5091187;28;20123;-88
2020/12/26 07:35:14;;;;;;;8.13;2.47;;;;;;;10.69;56.66;102076.22;5072959;28;20725;-86
2020/12/26 07:37:55;;;;;;;9.65;1.90;;;;;;;10.40;56.40;102074.81;5092876;28;20028;-88
2020/12/26 07:40:30;;;;;;;3.30;2.80;;;;;;;10.35;56.98;102071.75;5072381;28;20048;-85
2020/12/26 07:42:59;;;;;;;9.40;3.00;;;;;;;10.51;56.93;102060.06;5075899;28;20034;-89
2020/12/26 07:45:28;;;;;;;6.68;3.30;;;;;;;10.61;57.32;102059.91;5074459;28;20123;-87
2020/12/26 07:47:55;;;;;;;7.95;3.35;;;;;;;10.53;57.65;102061.59;5073258;28;20055;-85
2020/12/26 07:50:23;;;;;;;12.95;4.57;;;;;;;10.64;57.86;102049.53;5074305;28;20043;-88
2020/12/26 07:52:50;;;;;;;13.07;3.97;;;;;;;10.50;57.67;102036.59;5074614;28;20398;-86
2020/12/26 07:55:16;;;;;;;6.40;2.78;;;;;;;10.60;57.27;102050.03;5083904;28;20016;-87
2020/12/26 07:57:42;;;;;;;5.05;2.25;;;;;;;10.50;57.05;102006.66;5091384;28;20081;-88
2020/12/26 08:00:08;;;;;;;8.57;2.85;;;;;;;10.50;57.05;102023.00;5070618;28;20043;-87
2020/12/26 08:02:34;;;;;;;9.80;3.33;;;;;;;10.47;57.16;102017.88;5052977;28;20446;-92
2020/12/26 08:04:59;;;;;;;6.32;3.55;;;;;;;10.37;56.85;101999.00;5089604;28;20099;-92
2020/12/26 08:07:31;;;;;;;9.48;5.32;;;;;;;10.22;57.12;101998.75;5072534;28;20036;-87
2020/12/26 08:10:03;;;;;;;7.40;4.50;;;;;;;10.38;56.82;102017.03;5084890;28;20043;-91
2020/12/26 08:12:29;;;;;;;9.40;3.97;;;;;;;10.38;57.18;102015.16;5057879;28;20024;-90
2020/12/26 08:14:58;;;;;;;11.88;5.50;;;;;;;10.32;57.19;101998.63;5070441;28;20755;-87
2020/12/26 08:17:24;;;;;;;15.60;3.83;;;;;;;10.44;57.35;102008.22;5087927;28;20039;-83
2020/12/26 08:20:00;;;;;;;15.68;4.75;;;;;;;10.59;56.82;102002.09;5084512;28;20025;-86
2020/12/26 08:22:29;;;;;;;19.88;6.10;;;;;;;10.66;56.63;102012.16;5069225;28;20401;-87
2020/12/26 08:25:08;;;;;;;13.93;6.80;;;;;;;10.37;57.18;101999.84;5066665;28;20077;-88
2020/12/26 08:27:35;;;;;;;14.77;5.28;;;;;;;10.76;56.35;102009.25;5068339;28;20024;-87
2020/12/26 08:30:09;;;;;;;9.52;7.05;;;;;;;10.60;57.36;101999.22;5051688;28;20716;-88
2020/12/26 08:32:55;;;;;;;9.98;6.95;;;;;;;10.61;56.94;102006.34;5083862;28;20547;-85
2020/12/26 08:35:24;;;;;;;16.40;7.07;;;;;;;10.69;57.08;102000.94;5067645;28;20055;-82
2020/12/26 08:38:01;;;;;;;12.57;4.22;;;;;;;10.70;57.27;102001.78;5071496;28;20047;-88
2020/12/26 08:40:30;;;;;;;9.50;3.97;;;;;;;10.74;57.19;102001.25;5079796;28;20510;-85
2020/12/26 08:42:55;;;;;;;9.57;5.68;;;;;;;10.83;56.72;101991.25;5071247;28;20021;-84
2020/12/26 08:45:34;;;;;;;8.07;5.15;;;;;;;10.87;56.97;102019.81;5090847;28;20126;-89
2020/12/26 08:48:14;;;;;;;7.10;4.32;;;;;;;10.73;56.39;102018.59;5068955;28;20049;-86
2020/12/26 08:50:39;;;;;;;9.90;3.10;;;;;;;10.79;56.23;102013.53;5088762;28;20060;-85
2020/12/26 08:53:08;;;;;;;8.93;3.28;;;;;;;10.88;56.02;102013.34;5072857;28;20052;-86
2020/12/26 08:55:51;;;;;;;9.40;3.15;;;;;;;11.02;55.91;102011.81;5066351;28;20486;-87
2020/12/26 08:58:24;;;;;;;13.00;4.85;;;;;;;10.65;56.56;101998.72;5070563;28;20032;-89
2020/12/26 09:00:50;;;;;;;6.15;4.40;;;;;;;10.86;56.29;101998.19;5052402;28;20064;-87
2020/12/26 09:03:24;;;;;;;12.23;5.25;;;;;;;10.92;56.26;101973.03;5089589;28;20614;-89
2020/12/26 09:05:50;;;;;;;14.10;5.60;;;;;;;10.98;56.46;101974.22;5070819;28;20782;-84
2020/12/26 09:08:16;;;;;;;11.00;3.35;;;;;;;10.83;56.95;101987.66;5081535;28;20422;-89
2020/12/26 09:10:42;;;;;;;9.82;3.60;;;;;;;10.98;56.05;101980.50;5070784;28;20046;-89
2020/12/26 09:13:13;;;;;;;8.95;3.53;;;;;;;10.68;56.71;101968.44;5069641;28;20062;-85
2020/12/26 09:15:52;;;;;;;7.13;3.38;;;;;;;10.88;56.59;101994.28;5067513;28;20028;-87
2020/12/26 09:18:19;;;;;;;6.60;2.72;;;;;;;11.19;56.30;101990.03;5071686;28;20058;-88
2020/12/26 09:20:52;;;;;;;9.10;3.83;;;;;;;10.95;56.12;101989.00;5089258;28;20040;-90
2020/12/26 09:23:18;;;;;;;6.28;3.42;;;;;;;11.07;55.39;101982.19;5085715;28;20666;-87
2020/12/26 09:25:46;;;;;;;14.77;4.35;;;;;;;11.08;55.63;101983.06;5072797;28;20937;-87
2020/12/26 09:28:12;;;;;;;8.60;2.90;;;;;;;11.06;55.17;101975.06;5089518;28;20062;-90
2020/12/26 09:30:37;;;;;;;6.22;3.08;;;;;;;11.16;54.99;101984.94;5061102;28;20040;-89
2020/12/26 09:33:03;;;;;;;8.50;3.17;;;;;;;10.88;54.46;101980.69;5056301;28;20157;-86
2020/12/26 09:35:30;;;;;;;4.90;2.85;;;;;;;11.19;53.80;101970.97;5050884;28;20101;-87
2020/12/26 09:37:57;;;;;;;7.82;4.55;;;;;;;11.21;53.93;101974.38;5057595;28;20028;-87
2020/12/26 09:40:27;;;;;;;8.20;2.83;;;;;;;11.18;53.95;101981.00;5056369;28;20076;-85
2020/12/26 09:42:53;;;;;;;5.50;3.05;;;;;;;11.39;53.61;101976.91;5086475;28;20432;-86
2020/12/26 09:45:19;;;;;;;6.75;3.60;;;;;;;11.47;53.32;101950.47;5068386;28;20111;-88
2020/12/26 09:47:44;;;;;;;9.65;3.30;;;;;;;11.59;53.29;101963.72;5071945;28;20036;-87
2020/12/26 09:50:10;;;;;;;11.27;3.50;;;;;;;11.51;53.70;101964.59;5069131;28;20024;-90
2020/12/26 09:52:37;;;;;;;11.60;3.20;;;;;;;11.73;53.37;101948.53;5036475;28;20694;-87
2020/12/26 09:55:03;;;;;;;10.57;3.13;;;;;;;11.60;53.66;101959.97;5037172;28;20028;-87
2020/12/26 09:57:29;;;;;;;7.78;2.88;;;;;;;11.35;52.85;101938.25;5055581;28;20082;-89
2020/12/26 09:59:54;;;;;;;5.97;3.00;;;;;;;11.69;52.66;101937.09;5053952;28;20523;-90
2020/12/26 10:02:20;;;;;;;5.93;1.60;;;;;;;11.47;52.31;101941.47;5054235;28;20035;-87
2020/12/26 10:04:46;;;;;;;5.97;1.77;;;;;;;11.70;53.00;101936.09;5053511;28;20176;-87
2020/12/26 10:07:11;;;;;;;7.03;1.95;;;;;;;11.66;52.67;101921.09;5081232;28;20024;-83
2020/12/26 10:09:37;;;;;;;11.13;3.08;;;;;;;11.79;52.71;101921.41;5082440;28;20063;-83
2020/12/26 10:12:02;;;;;;;7.10;3.08;;;;;;;11.88;53.43;101945.88;5068908;28;20067;-90
2020/12/26 10:14:28;;;;;;;10.30;2.80;;;;;;;11.65;53.16;101916.72;5065014;28;20071;-84
2020/12/26 10:16:53;;;;;;;11.27;3.28;;;;;;;11.74;53.03;101920.22;5087906;28;20142;-89
2020/12/26 10:19:18;;;;;;;6.25;2.38;;;;;;;11.69;53.45;101898.13;5052214;28;20826;-85
2020/12/26 10:21:44;;;;;;;15.80;3.72;;;;;;;11.86;53.45;101915.25;5052410;28;20093;-88
2020/12/26 10:24:09;;;;;;;4.57;2.85;;;;;;;11.74;53.29;101907.47;5086018;28;20039;-84
2020/12/26 10:26:34;;;;;;;9.57;3.17;;;;;;;11.50;53.21;101883.06;5064670;28;20486;-83
2020/12/26 10:29:00;;;;;;;9.77;2.55;;;;;;;11.44;53.44;101882.72;5037091;28;20028;-87
2020/12/26 10:31:29;;;;;;;6.00;3.28;;;;;;;11.32;53.88;101881.41;5052406;28;20036;-85
2020/12/26 10:33:54;;;;;;;8.90;2.10;;;;;;;11.40;53.41;101900.47;5068273;28;20383;-89
2020/12/26 10:36:20;;;;;;;4.68;3.30;;;;;;;11.18;53.56;101895.75;5054808;28;20028;-87
2020/12/26 10:38:45;;;;;;;9.63;4.10;;;;;;;11.60;53.90;101889.13;5086303;28;20055;-87
2020/12/26 10:41:11;;;;;;;9.57;3.78;;;;;;;11.46;54.07;101875.25;5036883;28;20077;-89
2020/12/26 10:43:36;;;;;;;7.78;3.33;;;;;;;11.25;54.75;101884.00;5066340;28;20040;-86
2020/12/26 10:46:02;;;;;;;8.85;4.95;;;;;;;11.29;54.75;101881.75;5051723;28;20058;-87
2020/12/26 10:48:27;;;;;;;5.00;3.22;;;;;;;11.65;55.10;101873.09;5050978;28;20036;-86
2020/12/26 10:50:52;;;;;;;17.25;2.75;;;;;;;11.71;54.80;101852.44;5053360;28;20035;-87
2020/12/26 10:53:18;;;;;;;6.43;3.67;;;;;;;11.69;55.30;101871.72;5036375;28;20055;-86
2020/12/26 10:55:43;;;;;;;8.73;3.78;;;;;;;11.21;56.79;101851.84;5068969;28;20024;-87
2020/12/26 10:58:08;;;;;;;8.20;3.33;;;;;;;11.74;56.23;101854.81;5082746;28;20027;-83
2020/12/26 11:00:34;;;;;;;5.70;2.75;;;;;;;11.16;58.46;101846.91;5052457;28;20039;-87
2020/12/26 11:02:59;;;;;;;7.90;1.90;;;;;;;11.37;59.17;101854.50;5065631;28;20024;-84
2020/12/26 11:05:25;;;;;;;8.68;2.85;;;;;;;11.36;59.44;101860.97;5054599;28;20043;-89
2020/12/26 11:07:50;;;;;;;11.85;2.72;;;;;;;11.36;59.46;101847.34;5069292;28;20101;-87
2020/12/26 11:10:16;;;;;;;11.70;3.88;;;;;;;11.26;59.73;101833.97;5054441;28;20540;-90
2020/12/26 11:12:41;;;;;;;9.45;3.10;;;;;;;11.39;60.11;101840.72;5053261;28;20035;-87
2020/12/26 11:15:07;;;;;;;4.50;2.05;;;;;;;11.61;59.94;101836.34;5054550;28;20036;-85
2020/12/26 11:17:32;;;;;;;5.22;2.55;;;;;;;11.07;61.73;101824.31;5089557;28;20032;-86
2020/12/26 11:19:59;;;;;;;11.43;4.30;;;;;;;11.52;61.09;101821.91;5086238;28;20042;-87
2020/12/26 11:22:24;;;;;;;9.85;4.50;;;;;;;11.48;62.23;101806.97;5051608;28;20113;-88
2020/12/26 11:24:49;;;;;;;9.05;2.92;;;;;;;11.41;62.76;101800.53;5034936;28;20032;-84
2020/12/26 11:27:15;;;;;;;8.55;3.58;;;;;;;11.40;63.29;101802.41;5035797;28;20040;-84
2020/12/26 11:29:40;;;;;;;4.28;2.38;;;;;;;11.58;63.05;101787.66;5033979;28;20061;-89
2020/12/26 11:32:06;;;;;;;7.25;3.45;;;;;;;11.10;64.31;101761.34;5065468;28;20069;-86